Bissell, Illinois
Current Conditions -  °F | °C
As of 1:05 AM on Monday 24 Nov 2014 (Local Time) from KSPI Reporting Station
Haze Haze  
Wind Chill: 52°   Ceiling: 200
Heat Index: 52°   Visibility: 1.2mi
Dew Point: 51°   Wind: 6mph
Humidity: 97%   Direction: 230°SW
Pressure: 29.17"   Gusts: NA
Location:  39.854°N, 89.6295°W
Report Text: KSPI 240705Z AUTO 23005KT 1 1/4SM BR OVC002 11/11 A2917 RMK AO2 T01110106
Loading
Personal Weather Stations






























Interactive Weather Map New forecast layout! Learn more

10-Day Weather Forecast

Advertisements
Track Severe Weather on mobile